YRP weather

Ottawa / Carp Airport
Ottawa, Ontario, Canada

Public forecast

Using degrees Celsius for public forecast. Weather courtesy of forecast.io.

Closest aviation weather report (METAR) to Ottawa / Carp Airport

Closest report is Ottawa Macdonald-Cartier International Airport, 14.9 nm (27.6 km) E. Retrieved 2019/10/20 20:00 UTC (6 minutes ago):

CYOW 202000Z 13004KT 100V230 15SM SCT190 BKN240 14/06 A2994 RMK AC4CI2 ACC N SLP142 DENSITY ALT 400FT

Closest aviation forecast (TAF) to Ottawa / Carp Airport

Closest forecast is Ottawa Macdonald-Cartier International Airport, 14.9 nm (27.6 km) E. Retrieved 2019/10/20 21:42 UTC (0 seconds ago):

TAF CYOW 202038Z 2021/2118 12010KT P6SM FEW180 FM210300 VRB03KT P6SM FEW100 PROB30 2103/2108 1/2SM FG FM210800 VRB03KT P6SM FEW070 PROB40 2108/2115 1/4SM FG VV001 FM211500 08006KT P6SM FEW020 RMK NXT FCST BY 210000Z